Almira, PR

6:13 AM AST on February 21, 2017 (GMT -0400)
kp4.Levittown Lakes PR | | Change Station

Elev 24 ft 18.44 °N, 66.17 °W | Updated 12 seconds ago

Mostly Cloudy
Mostly Cloudy
76.5 °F
Feels Like 78 °F
N
9.8
Wind Variable Wind from NW
Gusts 12.3 mph

Today
High -- | Low -- °F
--% Chance of Precip.
Yesterday
High -- | Low -- °F
Precip. -- in
Pressure 29.86 in
Visibility 10.0 miles
Clouds Scattered Clouds 2500 ft
Mostly Cloudy 5000 ft
Mostly Cloudy 8000 ft
Heat Index 78 °F
Dew Point 63 °F
Humidity 62%
Rainfall 0.04 in
Snow Depth Not available.
6:48 AM 6:27 PM
Waning Crescent, 26% visible
METAR TJSJ 210956Z 30015G20KT 10SM -RA SCT025 BKN050 BKN080 25/18 A2986 RMK AO2 RAB26 SLP111 P0000 T02500183
Pressure 29.86 in
Visibility 10.0 miles
Clouds Scattered Clouds 2500 ft
Mostly Cloudy 5000 ft
Mostly Cloudy 8000 ft
Heat Index 78 °F
Dew Point 63 °F
Humidity 62%
Rainfall 0.04 in
Snow Depth Not available.
6:48 AM 6:27 PM
Waning Crescent, 26% visible
METAR TJSJ 210956Z 30015G20KT 10SM -RA SCT025 BKN050 BKN080 25/18 A2986 RMK AO2 RAB26 SLP111 P0000 T02500183

Get Your Daily Forecast Email!

Thanks for signing up!

Be on the lookout for a verification email in your inbox.

You'll start receiving the daily forecast at 8 AM.

×

10-Day Weather Forecast

Almanac

Astronomy

Feb. 21, 2017 Rise Set
Actual Time
Civil Twilight
Nautical Twilight
Astronomical Twilight
Moon
Length of Visible Light
Length of Day
Tomorrow will be .
, % of the Moon is Illuminated

Today's Extremes

State Highs State Lows

Community

WunderPhotos

Upload Photos

1,962,540 photos uploaded!

WunderBlog® & News

Nearby

Air Quality

  Air Quality AQ Index Pollutant
Not available.

Snow Depth

Station Depth Elevation

Earthquake Activity

City Distance Mag. Time & Date
Minimum magnitude displayed is 2.5.

Coastal Water Temperatures

Place Temperature

Stations

Nearby Weather Stations

Station Location Temp. Windchill Dew Point Humidity Wind Precip. Elev Updated Type
                   

Watches & Warnings

There are currently no watches in effect.